Time;durP1;ratioP1;P1;durP2;ratioP2;P2;SDS_P1;SDS_P2;PMS_P1;PMS_P2;Temp;Humidity;BMP_temperature;BMP_pressure;BME280_temperature;BME280_humidity;BME280_pressure;Samples;Min_cycle;Max_cycle;Signal;HPM_P1;HPM_P2
2023/06/17 00:01:20;;;;;;;;;;;;;;;;;;5076926;28;19987;-64
2023/06/17 00:03:46;;;;;;;;;;;;;;;;;;5076269;28;19975;-65
2023/06/17 00:06:12;;;;;;;;;;;;;;;;;;5076916;28;20490;-66
2023/06/17 00:08:38;;;;;;;;;;;;;;;;;;5076534;28;19956;-65
2023/06/17 00:11:04;;;;;;;;;;;;;;;;;;5076224;28;19978;-66
2023/06/17 00:13:30;;;;;;;;;;;;;;;;;;5076708;28;19955;-66
2023/06/17 00:15:59;;;;;;;;;;;;;;;;;;5076403;28;20056;-65
2023/06/17 00:18:25;;;;;;;;;;;;;;;;;;5074849;28;19967;-66
2023/06/17 00:20:57;;;;;;;;;;;;;;;;;;5076292;28;19960;-65
2023/06/17 00:23:23;;;;;;;;;;;;;;;;;;5076165;28;19987;-67
2023/06/17 00:25:49;;;;;;;;;;;;;;;;;;5076227;28;20387;-65
2023/06/17 00:28:15;;;;;;;;;;;;;;;;;;5076461;28;19956;-65
2023/06/17 00:30:41;;;;;;;;;;;;;;;;;;5075859;28;19987;-66
2023/06/17 00:33:07;;;;;;;;;;;;;;;;;;5075790;28;19962;-67
2023/06/17 00:35:33;;;;;;;;;;;;;;;;;;5075745;28;19998;-67
2023/06/17 00:37:59;;;;;;;;;;;;;;;;;;5076305;28;20389;-66
2023/06/17 00:40:25;;;;;;;;;;;;;;;;;;5076463;28;19956;-65
2023/06/17 00:42:51;;;;;;;;;;;;;;;;;;5075830;28;19988;-65
2023/06/17 00:45:17;;;;;;;;;;;;;;;;;;5075619;28;20345;-65
2023/06/17 00:47:43;;;;;;;;;;;;;;;;;;5074955;28;19963;-66
2023/06/17 00:50:09;;;;;;;;;;;;;;;;;;5076046;28;20519;-67
2023/06/17 00:52:35;;;;;;;;;;;;;;;;;;5075740;28;19956;-65
2023/06/17 00:55:01;;;;;;;;;;;;;;;;;;5075408;28;19955;-66
2023/06/17 00:57:28;;;;;;;;;;;;;;;;;;5075649;28;19956;-65
2023/06/17 00:59:55;;;;;;;;;;;;;;;;;;5075260;28;20417;-66
2023/06/17 01:02:25;;;;;;;;;;;;;;;;;;5073785;28;19963;-67
2023/06/17 01:04:51;;;;;;;;;;;;;;;;;;5075487;28;20467;-66
2023/06/17 01:07:17;;;;;;;;;;;;;;;;;;5075443;28;19960;-65
2023/06/17 01:09:43;;;;;;;;;;;;;;;;;;5075350;28;19967;-66
2023/06/17 01:12:09;;;;;;;;;;;;;;;;;;5075347;28;19955;-66
2023/06/17 01:14:35;;;;;;;;;;;;;;;;;;5075001;28;19956;-65
2023/06/17 01:17:01;;;;;;;;;;;;;;;;;;5075258;28;20021;-66
2023/06/17 01:19:27;;;;;;;;;;;;;;;;;;5074916;28;19956;-66
2023/06/17 01:21:53;;;;;;;;;;;;;;;;;;5075143;28;19967;-65
2023/06/17 01:24:19;;;;;;;;;;;;;;;;;;5074775;28;19999;-65
2023/06/17 01:26:45;;;;;;;;;;;;;;;;;;5074755;28;20421;-64
2023/06/17 01:29:11;;;;;;;;;;;;;;;;;;5074925;28;20486;-66
2023/06/17 01:31:37;;;;;;;;;;;;;;;;;;5074647;28;19956;-65
2023/06/17 01:34:02;;;;;;;;;;;;;;;;;;5074789;28;20463;-65
2023/06/17 01:36:28;;;;;;;;;;;;;;;;;;5074827;28;20005;-66
2023/06/17 01:38:54;;;;;;;;;;;;;;;;;;5074791;28;20410;-66
2023/06/17 01:41:20;;;;;;;;;;;;;;;;;;5075581;28;20046;-67
2023/06/17 01:43:46;;;;;;;;;;;;;;;;;;5074128;28;20453;-66
2023/06/17 01:46:15;;;;;;;;;;;;;;;;;;5074356;28;19959;-66
2023/06/17 01:48:41;;;;;;;;;;;;;;;;;;5074909;28;19955;-65
2023/06/17 01:51:06;;;;;;;;;;;;;;;;;;5074320;28;20001;-65
2023/06/17 01:53:32;;;;;;;;;;;;;;;;;;5074524;28;19960;-66
2023/06/17 01:55:58;;;;;;;;;;;;;;;;;;5074446;28;19966;-66
2023/06/17 01:58:24;;;;;;;;;;;;;;;;;;5074710;28;19962;-66
2023/06/17 02:00:50;;;;;;;;;;;;;;;;;;5073264;28;19956;-65
2023/06/17 02:03:17;;;;;;;;;;;;;;;;;;5074242;28;19976;-66
2023/06/17 02:05:43;;;;;;;;;;;;;;;;;;5074292;28;20322;-67
2023/06/17 02:08:09;;;;;;;;;;;;;;;;;;5074786;28;20055;-64
2023/06/17 02:10:35;;;;;;;;;;;;;;;;;;5073976;28;19978;-66
2023/06/17 02:13:01;;;;;;;;;;;;;;;;;;5074448;28;20406;-65
2023/06/17 02:15:27;;;;;;;;;;;;;;;;;;5073893;28;19959;-64
2023/06/17 02:17:53;;;;;;;;;;;;;;;;;;5074112;28;20376;-67
2023/06/17 02:20:19;;;;;;;;;;;;;;;;;;5074424;28;19994;-66
2023/06/17 02:22:45;;;;;;;;;;;;;;;;;;5073957;28;19960;-66
2023/06/17 02:25:10;;;;;;;;;;;;;;;;;;5074067;28;19955;-66
2023/06/17 02:27:36;;;;;;;;;;;;;;;;;;5074005;28;20326;-65
2023/06/17 02:30:02;;;;;;;;;;;;;;;;;;5074249;28;19959;-66
2023/06/17 02:32:28;;;;;;;;;;;;;;;;;;5073719;28;19962;-65
2023/06/17 02:34:54;;;;;;;;;;;;;;;;;;5073678;28;19972;-65
2023/06/17 02:37:20;;;;;;;;;;;;;;;;;;5074217;28;19960;-65
2023/06/17 02:39:46;;;;;;;;;;;;;;;;;;5073830;28;19991;-67
2023/06/17 02:42:12;;;;;;;;;;;;;;;;;;5074383;28;19962;-65
2023/06/17 02:44:37;;;;;;;;;;;;;;;;;;5073072;28;20002;-64
2023/06/17 02:47:03;;;;;;;;;;;;;;;;;;5073523;28;19959;-65
2023/06/17 02:49:29;;;;;;;;;;;;;;;;;;5073783;28;19956;-67
2023/06/17 02:51:55;;;;;;;;;;;;;;;;;;5073505;28;20332;-66
2023/06/17 02:54:21;;;;;;;;;;;;;;;;;;5073450;28;19963;-65
2023/06/17 02:56:47;;;;;;;;;;;;;;;;;;5073725;28;19978;-65
2023/06/17 02:59:13;;;;;;;;;;;;;;;;;;5073443;28;19956;-65
2023/06/17 03:01:42;;;;;;;;;;;;;;;;;;5073414;28;19955;-65
2023/06/17 03:04:08;;;;;;;;;;;;;;;;;;5073398;28;19975;-65
2023/06/17 03:06:35;;;;;;;;;;;;;;;;;;5074439;28;20401;-66
2023/06/17 03:09:03;;;;;;;;;;;;;;;;;;5073596;28;19960;-65
2023/06/17 03:11:29;;;;;;;;;;;;;;;;;;5074727;28;19959;-65
2023/06/17 03:13:55;;;;;;;;;;;;;;;;;;5077411;28;19956;-65
2023/06/17 03:16:23;;;;;;;;;;;;;;;;;;5077826;28;20402;-64
2023/06/17 03:18:48;;;;;;;;;;;;;;;;;;5077261;28;20333;-66
2023/06/17 03:21:14;;;;;;;;;;;;;;;;;;5077165;28;19955;-65
2023/06/17 03:23:40;;;;;;;;;;;;;;;;;;5077382;28;19976;-65
2023/06/17 03:26:07;;;;;;;;;;;;;;;;;;5077363;28;20369;-66
2023/06/17 03:28:33;;;;;;;;;;;;;;;;;;5077616;28;20325;-65
2023/06/17 03:30:58;;;;;;;;;;;;;;;;;;5076958;28;19959;-65
2023/06/17 03:33:24;;;;;;;;;;;;;;;;;;5076913;28;19963;-65
2023/06/17 03:35:50;;;;;;;;;;;;;;;;;;5077074;28;20452;-65
2023/06/17 03:38:17;;;;;;;;;;;;;;;;;;5077115;28;19982;-64
2023/06/17 03:40:43;;;;;;;;;;;;;;;;;;5077548;28;19950;-64
2023/06/17 03:43:09;;;;;;;;;;;;;;;;;;5076864;28;20427;-65
2023/06/17 03:45:35;;;;;;;;;;;;;;;;;;5077256;28;19955;-67
2023/06/17 03:48:01;;;;;;;;;;;;;;;;;;5075408;28;20398;-66
2023/06/17 03:50:28;;;;;;;;;;;;;;;;;;5076674;28;19960;-66
2023/06/17 03:52:54;;;;;;;;;;;;;;;;;;5077166;28;20409;-66
2023/06/17 03:55:20;;;;;;;;;;;;;;;;;;5076805;28;20013;-66
2023/06/17 03:57:46;;;;;;;;;;;;;;;;;;5076463;28;20417;-65
2023/06/17 04:00:13;;;;;;;;;;;;;;;;;;5076714;28;20058;-67
2023/06/17 04:02:41;;;;;;;;;;;;;;;;;;5076424;28;20484;-66
2023/06/17 04:05:07;;;;;;;;;;;;;;;;;;5076519;28;19983;-66
2023/06/17 04:07:33;;;;;;;;;;;;;;;;;;5076297;28;20505;-65
2023/06/17 04:09:59;;;;;;;;;;;;;;;;;;5076566;28;19959;-66
2023/06/17 04:12:25;;;;;;;;;;;;;;;;;;5074753;28;19959;-64
2023/06/17 04:14:51;;;;;;;;;;;;;;;;;;5076155;28;19962;-64
2023/06/17 04:17:17;;;;;;;;;;;;;;;;;;5076132;28;19978;-64
2023/06/17 04:19:43;;;;;;;;;;;;;;;;;;5076146;28;19955;-66
2023/06/17 04:22:09;;;;;;;;;;;;;;;;;;5076327;28;20394;-65
2023/06/17 04:24:37;;;;;;;;;;;;;;;;;;5075606;28;19975;-65
2023/06/17 04:27:05;;;;;;;;;;;;;;;;;;5077091;28;19960;-65
2023/06/17 04:29:34;;;;;;;;;;;;;;;;;;5075922;28;19959;-64
2023/06/17 04:32:01;;;;;;;;;;;;;;;;;;5076835;28;20325;-66
2023/06/17 04:34:27;;;;;;;;;;;;;;;;;;5075795;28;19971;-65
2023/06/17 04:36:59;;;;;;;;;;;;;;;;;;5076090;28;20409;-65
2023/06/17 04:39:25;;;;;;;;;;;;;;;;;;5076292;28;20358;-65
2023/06/17 04:41:51;;;;;;;;;;;;;;;;;;5076239;28;19998;-66
2023/06/17 04:44:17;;;;;;;;;;;;;;;;;;5075385;28;20035;-67
2023/06/17 04:46:43;;;;;;;;;;;;;;;;;;5075638;28;19960;-65
2023/06/17 04:49:10;;;;;;;;;;;;;;;;;;5075517;28;20436;-65
2023/06/17 04:51:38;;;;;;;;;;;;;;;;;;5075808;28;20411;-67
2023/06/17 04:54:07;;;;;;;;;;;;;;;;;;5075457;28;20436;-66
2023/06/17 04:56:33;;;;;;;;;;;;;;;;;;5075342;28;19964;-65
2023/06/17 04:58:59;;;;;;;;;;;;;;;;;;5075324;28;19959;-65
2023/06/17 05:01:25;;;;;;;;;;;;;;;;;;5075260;28;20383;-66
2023/06/17 05:03:51;;;;;;;;;;;;;;;;;;5075445;28;19982;-66
2023/06/17 05:06:17;;;;;;;;;;;;;;;;;;5075133;28;19967;-64
2023/06/17 05:08:43;;;;;;;;;;;;;;;;;;5075430;28;19963;-64
2023/06/17 05:11:09;;;;;;;;;;;;;;;;;;5075074;28;19962;-65
2023/06/17 05:13:35;;;;;;;;;;;;;;;;;;5075054;28;20368;-66
2023/06/17 05:16:01;;;;;;;;;;;;;;;;;;5075009;28;19962;-66
2023/06/17 05:18:26;;;;;;;;;;;;;;;;;;5075521;28;20409;-66
2023/06/17 05:20:52;;;;;;;;;;;;;;;;;;5075148;28;19963;-66
2023/06/17 05:23:18;;;;;;;;;;;;;;;;;;5074997;28;19979;-65
2023/06/17 05:25:44;;;;;;;;;;;;;;;;;;5074777;28;19955;-65
2023/06/17 05:28:10;;;;;;;;;;;;;;;;;;5074718;28;19987;-66
2023/06/17 05:30:38;;;;;;;;;;;;;;;;;;5074977;28;19977;-65
2023/06/17 05:33:04;;;;;;;;;;;;;;;;;;5075218;28;20409;-65
2023/06/17 05:35:30;;;;;;;;;;;;;;;;;;5074418;28;19971;-66
2023/06/17 05:37:56;;;;;;;;;;;;;;;;;;5074808;28;19955;-65
2023/06/17 05:40:22;;;;;;;;;;;;;;;;;;5074521;28;20034;-65
2023/06/17 05:42:48;;;;;;;;;;;;;;;;;;5074968;28;19991;-66
2023/06/17 05:45:14;;;;;;;;;;;;;;;;;;5074947;28;19975;-65
2023/06/17 05:47:40;;;;;;;;;;;;;;;;;;5074594;28;19956;-65
2023/06/17 05:50:06;;;;;;;;;;;;;;;;;;5074564;28;19998;-65
2023/06/17 05:52:31;;;;;;;;;;;;;;;;;;5074225;28;20012;-66
2023/06/17 05:54:57;;;;;;;;;;;;;;;;;;5074150;28;19956;-66
2023/06/17 05:57:23;;;;;;;;;;;;;;;;;;5074474;28;19955;-66
2023/06/17 05:59:49;;;;;;;;;;;;;;;;;;5074417;28;19955;-66
2023/06/17 06:02:15;;;;;;;;;;;;;;;;;;5074359;28;19963;-66
2023/06/17 06:04:41;;;;;;;;;;;;;;;;;;5073955;28;20021;-67
2023/06/17 06:07:07;;;;;;;;;;;;;;;;;;5074259;28;19956;-66
2023/06/17 06:09:33;;;;;;;;;;;;;;;;;;5074249;28;19966;-67
2023/06/17 06:11:59;;;;;;;;;;;;;;;;;;5074489;28;19959;-66
2023/06/17 06:14:25;;;;;;;;;;;;;;;;;;5073913;28;20433;-66
2023/06/17 06:16:51;;;;;;;;;;;;;;;;;;5074125;28;19955;-65
2023/06/17 06:19:17;;;;;;;;;;;;;;;;;;5074111;28;19996;-66
2023/06/17 06:21:42;;;;;;;;;;;;;;;;;;5073811;28;19959;-67
2023/06/17 06:24:08;;;;;;;;;;;;;;;;;;5074491;28;20022;-64
2023/06/17 06:26:34;;;;;;;;;;;;;;;;;;5073713;28;20049;-66
2023/06/17 06:29:00;;;;;;;;;;;;;;;;;;5074230;28;20295;-66
2023/06/17 06:31:26;;;;;;;;;;;;;;;;;;5073729;28;19956;-65
2023/06/17 06:33:52;;;;;;;;;;;;;;;;;;5073896;28;19979;-65
2023/06/17 06:36:18;;;;;;;;;;;;;;;;;;5073972;28;20443;-66
2023/06/17 06:38:44;;;;;;;;;;;;;;;;;;5074201;28;19959;-66
2023/06/17 06:41:10;;;;;;;;;;;;;;;;;;5074048;28;20488;-66
2023/06/17 06:43:36;;;;;;;;;;;;;;;;;;5073459;28;20002;-66
2023/06/17 06:46:01;;;;;;;;;;;;;;;;;;5073041;28;20367;-67
2023/06/17 06:48:27;;;;;;;;;;;;;;;;;;5073550;28;19963;-66
2023/06/17 06:50:53;;;;;;;;;;;;;;;;;;5073497;28;19956;-67
2023/06/17 06:53:21;;;;;;;;;;;;;;;;;;5073776;28;19956;-67
2023/06/17 06:55:47;;;;;;;;;;;;;;;;;;5073703;28;19967;-67
2023/06/17 06:58:13;;;;;;;;;;;;;;;;;;5073373;28;19959;-67
2023/06/17 07:00:39;;;;;;;;;;;;;;;;;;5073395;28;19997;-67
2023/06/17 07:03:05;;;;;;;;;;;;;;;;;;5073608;28;19962;-66
2023/06/17 07:05:31;;;;;;;;;;;;;;;;;;5073383;28;20364;-66
2023/06/17 07:07:58;;;;;;;;;;;;;;;;;;5073407;28;20021;-66
2023/06/17 07:10:23;;;;;;;;;;;;;;;;;;5073633;28;19955;-66
2023/06/17 07:12:49;;;;;;;;;;;;;;;;;;5073268;28;19962;-67
2023/06/17 07:15:15;;;;;;;;;;;;;;;;;;5073782;28;20351;-66
2023/06/17 07:17:41;;;;;;;;;;;;;;;;;;5073476;28;19958;-65
2023/06/17 07:20:07;;;;;;;;;;;;;;;;;;5073795;28;19962;-66
2023/06/17 07:22:33;;;;;;;;;;;;;;;;;;5073149;28;20001;-67
2023/06/17 07:24:59;;;;;;;;;;;;;;;;;;5073366;28;20082;-67
2023/06/17 07:27:25;;;;;;;;;;;;;;;;;;5073187;28;19962;-67
2023/06/17 07:29:52;;;;;;;;;;;;;;;;;;5073113;28;19955;-66
2023/06/17 07:32:18;;;;;;;;;;;;;;;;;;5071575;28;20046;-68
2023/06/17 07:34:44;;;;;;;;;;;;;;;;;;5073112;28;20006;-67
2023/06/17 07:37:10;;;;;;;;;;;;;;;;;;5073074;28;20416;-66
2023/06/17 07:39:36;;;;;;;;;;;;;;;;;;5073048;28;19955;-65
2023/06/17 07:42:02;;;;;;;;;;;;;;;;;;5072313;28;20045;-66
2023/06/17 07:44:28;;;;;;;;;;;;;;;;;;5072530;28;19999;-65
2023/06/17 07:46:54;;;;;;;;;;;;;;;;;;5073241;28;19955;-67
2023/06/17 07:49:20;;;;;;;;;;;;;;;;;;5073175;28;19966;-67
2023/06/17 07:51:46;;;;;;;;;;;;;;;;;;5072838;28;20298;-68
2023/06/17 07:54:12;;;;;;;;;;;;;;;;;;5072842;28;19956;-65
2023/06/17 07:56:38;;;;;;;;;;;;;;;;;;5073345;28;19956;-65
2023/06/17 07:59:04;;;;;;;;;;;;;;;;;;5075216;28;19955;-66
2023/06/17 08:01:29;;;;;;;;;;;;;;;;;;5076362;28;19955;-66
2023/06/17 08:03:55;;;;;;;;;;;;;;;;;;5076234;28;20025;-67
2023/06/17 08:06:22;;;;;;;;;;;;;;;;;;5076869;28;20413;-67
2023/06/17 08:08:48;;;;;;;;;;;;;;;;;;5076546;28;19955;-67
2023/06/17 08:11:13;;;;;;;;;;;;;;;;;;5076287;28;20303;-66
2023/06/17 08:13:39;;;;;;;;;;;;;;;;;;5076494;28;20045;-67
2023/06/17 08:16:05;;;;;;;;;;;;;;;;;;5076442;28;19982;-66
2023/06/17 08:18:31;;;;;;;;;;;;;;;;;;5076007;28;19955;-66
2023/06/17 08:20:57;;;;;;;;;;;;;;;;;;5076642;28;19967;-65
2023/06/17 08:23:23;;;;;;;;;;;;;;;;;;5076024;28;20100;-66
2023/06/17 08:25:49;;;;;;;;;;;;;;;;;;5075970;28;19956;-67
2023/06/17 08:28:15;;;;;;;;;;;;;;;;;;5075984;28;19978;-68
2023/06/17 08:30:41;;;;;;;;;;;;;;;;;;5076242;28;20405;-65
2023/06/17 08:33:07;;;;;;;;;;;;;;;;;;5076201;28;19956;-67
2023/06/17 08:35:33;;;;;;;;;;;;;;;;;;5075775;28;20555;-67
2023/06/17 08:37:59;;;;;;;;;;;;;;;;;;5075756;28;20436;-67
2023/06/17 08:40:24;;;;;;;;;;;;;;;;;;5075709;28;20065;-67
2023/06/17 08:42:50;;;;;;;;;;;;;;;;;;5076452;28;20322;-67
2023/06/17 08:45:16;;;;;;;;;;;;;;;;;;5075888;28;19983;-67
2023/06/17 08:47:42;;;;;;;;;;;;;;;;;;5075581;28;20359;-66
2023/06/17 08:50:08;;;;;;;;;;;;;;;;;;5075216;28;19987;-65
2023/06/17 08:52:36;;;;;;;;;;;;;;;;;;5075170;28;20037;-67
2023/06/17 08:55:02;;;;;;;;;;;;;;;;;;5074543;28;19985;-66
2023/06/17 08:57:28;;;;;;;;;;;;;;;;;;5074800;28;20417;-68
2023/06/17 08:59:54;;;;;;;;;;;;;;;;;;5075651;28;19956;-66
2023/06/17 09:02:20;;;;;;;;;;;;;;;;;;5075212;28;19955;-67
2023/06/17 09:04:46;;;;;;;;;;;;;;;;;;5074604;28;19975;-66
2023/06/17 09:07:12;;;;;;;;;;;;;;;;;;5075166;28;20409;-67
2023/06/17 09:09:38;;;;;;;;;;;;;;;;;;5073878;28;20010;-67
2023/06/17 09:12:05;;;;;;;;;;;;;;;;;;5073790;28;19964;-67
2023/06/17 09:14:31;;;;;;;;;;;;;;;;;;5074699;28;20050;-72
2023/06/17 09:16:57;;;;;;;;;;;;;;;;;;5074885;28;20440;-72
2023/06/17 09:19:22;;;;;;;;;;;;;;;;;;5073502;28;19967;-70
2023/06/17 09:21:48;;;;;;;;;;;;;;;;;;5075521;28;19966;-69
2023/06/17 09:24:14;;;;;;;;;;;;;;;;;;5074510;28;20091;-74
2023/06/17 09:26:41;;;;;;;;;;;;;;;;;;5075362;28;19964;-70
2023/06/17 09:29:06;;;;;;;;;;;;;;;;;;5074946;28;20333;-72
2023/06/17 09:31:33;;;;;;;;;;;;;;;;;;5075490;28;19956;-68
2023/06/17 09:33:59;;;;;;;;;;;;;;;;;;5074544;28;19976;-70
2023/06/17 09:36:25;;;;;;;;;;;;;;;;;;5074902;28;20038;-72
2023/06/17 09:38:51;;;;;;;;;;;;;;;;;;5075053;28;20046;-69
2023/06/17 09:41:18;;;;;;;;;;;;;;;;;;5074630;28;20001;-73
2023/06/17 09:43:44;;;;;;;;;;;;;;;;;;5074586;28;19998;-72
2023/06/17 09:46:09;;;;;;;;;;;;;;;;;;5074719;28;19955;-73
2023/06/17 09:48:37;;;;;;;;;;;;;;;;;;5074644;28;19986;-71
2023/06/17 09:51:05;;;;;;;;;;;;;;;;;;5074818;28;19959;-69
2023/06/17 09:53:31;;;;;;;;;;;;;;;;;;5074396;28;20425;-72
2023/06/17 09:55:57;;;;;;;;;;;;;;;;;;5074380;28;19960;-70
2023/06/17 09:58:23;;;;;;;;;;;;;;;;;;5074455;28;20428;-71
2023/06/17 10:00:51;;;;;;;;;;;;;;;;;;5075263;28;20348;-70
2023/06/17 10:03:17;;;;;;;;;;;;;;;;;;5072494;28;19963;-68
2023/06/17 10:05:43;;;;;;;;;;;;;;;;;;5072508;28;20373;-69
2023/06/17 10:08:09;;;;;;;;;;;;;;;;;;5072221;28;19962;-67
2023/06/17 10:10:35;;;;;;;;;;;;;;;;;;5073329;28;19962;-66
2023/06/17 10:13:01;;;;;;;;;;;;;;;;;;5073342;28;20360;-68
2023/06/17 10:15:27;;;;;;;;;;;;;;;;;;5073714;28;19994;-68
2023/06/17 10:17:52;;;;;;;;;;;;;;;;;;5072727;28;19959;-67
2023/06/17 10:20:18;;;;;;;;;;;;;;;;;;5072382;28;19960;-67
2023/06/17 10:22:44;;;;;;;;;;;;;;;;;;5071854;28;19955;-68
2023/06/17 10:25:10;;;;;;;;;;;;;;;;;;5072801;28;19981;-68
2023/06/17 10:27:37;;;;;;;;;;;;;;;;;;5073219;28;19982;-66
2023/06/17 10:30:03;;;;;;;;;;;;;;;;;;5073989;28;19959;-68
2023/06/17 10:32:29;;;;;;;;;;;;;;;;;;5072359;28;20345;-67
2023/06/17 10:34:56;;;;;;;;;;;;;;;;;;5073786;28;19975;-68
2023/06/17 10:37:21;;;;;;;;;;;;;;;;;;5073672;28;19955;-68
2023/06/17 10:39:47;;;;;;;;;;;;;;;;;;5073674;28;20336;-66
2023/06/17 10:42:13;;;;;;;;;;;;;;;;;;5074034;28;19985;-68
2023/06/17 10:44:39;;;;;;;;;;;;;;;;;;5073850;28;20415;-66
2023/06/17 10:47:05;;;;;;;;;;;;;;;;;;5073443;28;19955;-68
2023/06/17 10:49:31;;;;;;;;;;;;;;;;;;5073694;28;20058;-67
2023/06/17 10:51:57;;;;;;;;;;;;;;;;;;5073726;28;20005;-67
2023/06/17 10:54:23;;;;;;;;;;;;;;;;;;5073743;28;19966;-68
2023/06/17 10:56:49;;;;;;;;;;;;;;;;;;5073558;28;19960;-68
2023/06/17 10:59:15;;;;;;;;;;;;;;;;;;5073084;28;20058;-66
2023/06/17 11:01:41;;;;;;;;;;;;;;;;;;5071581;28;20015;-66
2023/06/17 11:04:07;;;;;;;;;;;;;;;;;;5072543;28;20074;-67
2023/06/17 11:06:33;;;;;;;;;;;;;;;;;;5072036;28;19959;-66
2023/06/17 11:09:00;;;;;;;;;;;;;;;;;;5072768;28;20383;-68
2023/06/17 11:11:26;;;;;;;;;;;;;;;;;;5073036;28;19964;-68
2023/06/17 11:13:52;;;;;;;;;;;;;;;;;;5072103;28;20096;-67
2023/06/17 11:16:18;;;;;;;;;;;;;;;;;;5072823;28;19955;-68
2023/06/17 11:18:44;;;;;;;;;;;;;;;;;;5072924;28;19962;-66
2023/06/17 11:21:10;;;;;;;;;;;;;;;;;;5072975;28;19962;-67
2023/06/17 11:23:38;;;;;;;;;;;;;;;;;;5073125;28;20353;-66
2023/06/17 11:26:05;;;;;;;;;;;;;;;;;;5073205;28;19956;-69
2023/06/17 11:28:30;;;;;;;;;;;;;;;;;;5073429;28;19966;-68
2023/06/17 11:30:56;;;;;;;;;;;;;;;;;;5073079;28;19955;-69
2023/06/17 11:33:22;;;;;;;;;;;;;;;;;;5075857;28;19960;-67
2023/06/17 11:35:48;;;;;;;;;;;;;;;;;;5077133;28;19979;-68
2023/06/17 11:38:14;;;;;;;;;;;;;;;;;;5076894;28;19964;-67
2023/06/17 11:40:40;;;;;;;;;;;;;;;;;;5077076;28;19955;-67
2023/06/17 11:43:06;;;;;;;;;;;;;;;;;;5077248;28;20373;-68
2023/06/17 11:45:32;;;;;;;;;;;;;;;;;;5077260;28;19955;-67
2023/06/17 11:47:58;;;;;;;;;;;;;;;;;;5076640;28;19963;-68
2023/06/17 11:50:24;;;;;;;;;;;;;;;;;;5076660;28;19982;-68
2023/06/17 11:52:50;;;;;;;;;;;;;;;;;;5076601;28;19955;-68
2023/06/17 11:55:16;;;;;;;;;;;;;;;;;;5076804;28;19956;-66
2023/06/17 11:57:42;;;;;;;;;;;;;;;;;;5076518;28;19956;-68
2023/06/17 12:00:09;;;;;;;;;;;;;;;;;;5076445;28;19956;-68
2023/06/17 12:02:36;;;;;;;;;;;;;;;;;;5075163;28;20341;-67
2023/06/17 12:05:02;;;;;;;;;;;;;;;;;;5076897;28;19975;-67
2023/06/17 12:07:28;;;;;;;;;;;;;;;;;;5076332;28;20010;-68
2023/06/17 12:09:54;;;;;;;;;;;;;;;;;;5076561;28;19959;-68
2023/06/17 12:12:20;;;;;;;;;;;;;;;;;;5076577;28;19956;-68
2023/06/17 12:14:47;;;;;;;;;;;;;;;;;;5076134;28;19962;-66
2023/06/17 12:17:16;;;;;;;;;;;;;;;;;;5076459;28;20314;-69
2023/06/17 12:19:42;;;;;;;;;;;;;;;;;;5074842;28;19959;-68
2023/06/17 12:22:08;;;;;;;;;;;;;;;;;;5076351;28;19956;-67
2023/06/17 12:24:35;;;;;;;;;;;;;;;;;;5076747;28;19979;-66
2023/06/17 12:27:01;;;;;;;;;;;;;;;;;;5076247;28;20054;-68
2023/06/17 12:29:26;;;;;;;;;;;;;;;;;;5075849;28;19991;-67
2023/06/17 12:31:52;;;;;;;;;;;;;;;;;;5076158;28;20005;-67
2023/06/17 12:34:18;;;;;;;;;;;;;;;;;;5075755;28;20037;-68
2023/06/17 12:36:44;;;;;;;;;;;;;;;;;;5075759;28;20383;-66
2023/06/17 12:39:10;;;;;;;;;;;;;;;;;;5075729;28;19956;-68
2023/06/17 12:41:36;;;;;;;;;;;;;;;;;;5076211;28;20385;-66
2023/06/17 12:44:02;;;;;;;;;;;;;;;;;;5075148;28;20041;-67
2023/06/17 12:46:28;;;;;;;;;;;;;;;;;;5075579;28;19959;-66
2023/06/17 12:48:54;;;;;;;;;;;;;;;;;;5075580;28;20009;-67
2023/06/17 12:51:20;;;;;;;;;;;;;;;;;;5075551;28;19955;-67
2023/06/17 12:53:46;;;;;;;;;;;;;;;;;;5076047;28;20405;-66
2023/06/17 12:56:12;;;;;;;;;;;;;;;;;;5075387;28;19966;-68
2023/06/17 12:58:38;;;;;;;;;;;;;;;;;;5075612;28;19955;-67
2023/06/17 13:01:05;;;;;;;;;;;;;;;;;;5075264;28;19965;-68
2023/06/17 13:03:31;;;;;;;;;;;;;;;;;;5075531;28;19979;-66
2023/06/17 13:05:57;;;;;;;;;;;;;;;;;;5075229;28;20009;-68
2023/06/17 13:08:23;;;;;;;;;;;;;;;;;;5075712;28;19956;-67
2023/06/17 13:10:49;;;;;;;;;;;;;;;;;;5075429;28;19977;-66
2023/06/17 13:13:15;;;;;;;;;;;;;;;;;;5075344;28;19959;-67
2023/06/17 13:15:41;;;;;;;;;;;;;;;;;;5074921;28;20421;-66
2023/06/17 13:18:06;;;;;;;;;;;;;;;;;;5075447;28;19955;-66
2023/06/17 13:20:32;;;;;;;;;;;;;;;;;;5074949;28;19994;-67
2023/06/17 13:22:59;;;;;;;;;;;;;;;;;;5075189;28;19993;-67
2023/06/17 13:25:25;;;;;;;;;;;;;;;;;;5075034;28;19987;-67
2023/06/17 13:27:51;;;;;;;;;;;;;;;;;;5074725;28;19956;-68
2023/06/17 13:30:17;;;;;;;;;;;;;;;;;;5075224;28;20349;-66
2023/06/17 13:32:44;;;;;;;;;;;;;;;;;;5074924;28;19960;-68
2023/06/17 13:35:10;;;;;;;;;;;;;;;;;;5074629;28;19975;-68
2023/06/17 13:37:36;;;;;;;;;;;;;;;;;;5074471;28;19963;-68
2023/06/17 13:40:02;;;;;;;;;;;;;;;;;;5074987;28;20459;-67
2023/06/17 13:42:28;;;;;;;;;;;;;;;;;;5074832;28;20001;-65
2023/06/17 13:44:56;;;;;;;;;;;;;;;;;;5074533;28;19983;-68
2023/06/17 13:47:22;;;;;;;;;;;;;;;;;;5074388;28;19954;-69
2023/06/17 13:49:48;;;;;;;;;;;;;;;;;;5074340;28;19963;-67
2023/06/17 13:52:16;;;;;;;;;;;;;;;;;;5074811;28;19960;-67
2023/06/17 13:54:42;;;;;;;;;;;;;;;;;;5074542;28;19956;-66
2023/06/17 13:57:08;;;;;;;;;;;;;;;;;;5074179;28;20038;-66
2023/06/17 13:59:34;;;;;;;;;;;;;;;;;;5074419;28;20101;-67
2023/06/17 14:02:00;;;;;;;;;;;;;;;;;;5074140;28;19959;-68
2023/06/17 14:04:26;;;;;;;;;;;;;;;;;;5074018;28;19975;-67
2023/06/17 14:06:52;;;;;;;;;;;;;;;;;;5074294;28;20447;-68
2023/06/17 14:09:19;;;;;;;;;;;;;;;;;;5074013;28;19956;-68
2023/06/17 14:11:45;;;;;;;;;;;;;;;;;;5072490;28;19959;-67
2023/06/17 14:14:11;;;;;;;;;;;;;;;;;;5074381;28;20316;-68
2023/06/17 14:16:37;;;;;;;;;;;;;;;;;;5074122;28;19955;-67
2023/06/17 14:19:03;;;;;;;;;;;;;;;;;;5073823;28;19955;-67
2023/06/17 14:21:29;;;;;;;;;;;;;;;;;;5073840;28;20016;-65
2023/06/17 14:23:54;;;;;;;;;;;;;;;;;;5073696;28;19976;-67
2023/06/17 14:26:20;;;;;;;;;;;;;;;;;;5073733;28;20334;-65
2023/06/17 14:28:46;;;;;;;;;;;;;;;;;;5073758;28;19955;-67
2023/06/17 14:31:12;;;;;;;;;;;;;;;;;;5074003;28;20044;-66
2023/06/17 14:33:38;;;;;;;;;;;;;;;;;;5073864;28;19962;-66
2023/06/17 14:36:04;;;;;;;;;;;;;;;;;;5073867;28;19966;-68
2023/06/17 14:38:30;;;;;;;;;;;;;;;;;;5073971;28;20043;-68
2023/06/17 14:40:56;;;;;;;;;;;;;;;;;;5073567;28;20397;-66
2023/06/17 14:43:22;;;;;;;;;;;;;;;;;;5073831;28;19991;-67
2023/06/17 14:45:48;;;;;;;;;;;;;;;;;;5073413;28;20376;-68
2023/06/17 14:48:16;;;;;;;;;;;;;;;;;;5073015;28;20309;-67
2023/06/17 14:50:41;;;;;;;;;;;;;;;;;;5073999;28;20463;-67
2023/06/17 14:53:07;;;;;;;;;;;;;;;;;;5073451;28;19963;-67
2023/06/17 14:55:33;;;;;;;;;;;;;;;;;;5073931;28;20409;-66
2023/06/17 14:57:59;;;;;;;;;;;;;;;;;;5073451;28;20318;-67
2023/06/17 15:00:26;;;;;;;;;;;;;;;;;;5073360;28;19963;-67
2023/06/17 15:02:54;;;;;;;;;;;;;;;;;;5071906;28;19989;-67
2023/06/17 15:05:20;;;;;;;;;;;;;;;;;;5073308;28;19975;-66
2023/06/17 15:07:45;;;;;;;;;;;;;;;;;;5075488;28;19959;-68
2023/06/17 15:10:11;;;;;;;;;;;;;;;;;;5077794;28;19956;-67
2023/06/17 15:12:38;;;;;;;;;;;;;;;;;;5077312;28;19956;-68
2023/06/17 15:15:04;;;;;;;;;;;;;;;;;;5077635;28;20390;-66
2023/06/17 15:17:30;;;;;;;;;;;;;;;;;;5078343;28;19994;-68
2023/06/17 15:19:56;;;;;;;;;;;;;;;;;;5077255;28;20009;-67
2023/06/17 15:22:22;;;;;;;;;;;;;;;;;;5077379;28;20049;-66
2023/06/17 15:24:48;;;;;;;;;;;;;;;;;;5076983;28;19976;-66
2023/06/17 15:27:14;;;;;;;;;;;;;;;;;;5077083;28;19967;-69
2023/06/17 15:29:40;;;;;;;;;;;;;;;;;;5077600;28;19963;-67
2023/06/17 15:32:06;;;;;;;;;;;;;;;;;;5077001;28;20009;-67
2023/06/17 15:34:31;;;;;;;;;;;;;;;;;;5076848;28;20021;-68
2023/06/17 15:36:57;;;;;;;;;;;;;;;;;;5077119;28;19955;-68
2023/06/17 15:39:23;;;;;;;;;;;;;;;;;;5077033;28;19966;-67
2023/06/17 15:41:49;;;;;;;;;;;;;;;;;;5077052;28;20095;-67
2023/06/17 15:44:15;;;;;;;;;;;;;;;;;;5076515;28;20452;-68
2023/06/17 15:46:41;;;;;;;;;;;;;;;;;;5076835;28;19960;-68
2023/06/17 15:49:07;;;;;;;;;;;;;;;;;;5076931;28;19960;-68
2023/06/17 15:51:33;;;;;;;;;;;;;;;;;;5076825;28;20470;-67
2023/06/17 15:53:59;;;;;;;;;;;;;;;;;;5076806;28;20046;-68
2023/06/17 15:56:25;;;;;;;;;;;;;;;;;;5076584;28;19956;-67
2023/06/17 15:58:51;;;;;;;;;;;;;;;;;;5075219;28;20334;-66
2023/06/17 16:01:17;;;;;;;;;;;;;;;;;;5076480;28;19962;-67
2023/06/17 16:03:43;;;;;;;;;;;;;;;;;;5075018;28;19986;-67
2023/06/17 16:06:08;;;;;;;;;;;;;;;;;;5076905;28;19959;-66
2023/06/17 16:08:35;;;;;;;;;;;;;;;;;;5076847;28;19983;-67
2023/06/17 16:11:01;;;;;;;;;;;;;;;;;;5076580;28;19959;-68
2023/06/17 16:13:27;;;;;;;;;;;;;;;;;;5076455;28;19969;-68
2023/06/17 16:15:53;;;;;;;;;;;;;;;;;;5076443;28;19978;-66
2023/06/17 16:18:19;;;;;;;;;;;;;;;;;;5075979;28;19962;-68
2023/06/17 16:20:45;;;;;;;;;;;;;;;;;;5075589;28;19955;-67
2023/06/17 16:23:11;;;;;;;;;;;;;;;;;;5076049;28;20008;-68
2023/06/17 16:25:37;;;;;;;;;;;;;;;;;;5076476;28;20454;-66
2023/06/17 16:28:02;;;;;;;;;;;;;;;;;;5076226;28;19955;-68
2023/06/17 16:30:28;;;;;;;;;;;;;;;;;;5076482;28;19962;-67
2023/06/17 16:32:54;;;;;;;;;;;;;;;;;;5076137;28;19966;-66
2023/06/17 16:35:20;;;;;;;;;;;;;;;;;;5075819;28;20500;-66
2023/06/17 16:37:46;;;;;;;;;;;;;;;;;;5076091;28;19959;-68